Time;durP1;ratioP1;P1;durP2;ratioP2;P2;SDS_P1;SDS_P2;PMS_P1;PMS_P2;Temp;Humidity;BMP_temperature;BMP_pressure;BME280_temperature;BME280_humidity;BME280_pressure;Samples;Min_cycle;Max_cycle;Signal;HPM_P1;HPM_P2
2023/09/22 00:01:12;;;;;;;;;;;14.40;99.90;;;;;;5076477;28;19965;-70
2023/09/22 00:03:37;;;;;;;;;;;14.40;99.90;;;;;;5111914;28;19920;-71
2023/09/22 00:06:03;;;;;;;;;;;14.40;99.90;;;;;;5079624;28;20089;-71
2023/09/22 00:08:29;;;;;;;;;;;14.40;99.90;;;;;;5096647;28;19972;-71
2023/09/22 00:10:55;;;;;;;;;;;14.40;99.90;;;;;;5114530;28;19965;-70
2023/09/22 00:13:21;;;;;;;;;;;14.40;99.90;;;;;;5114794;28;19923;-70
2023/09/22 00:15:47;;;;;;;;;;;14.40;99.90;;;;;;5114931;28;19923;-70
2023/09/22 00:18:12;;;;;;;;;;;14.40;99.90;;;;;;5114920;28;20047;-71
2023/09/22 00:20:38;;;;;;;;;;;14.40;99.90;;;;;;5096315;28;19933;-70
2023/09/22 00:23:04;;;;;;;;;;;14.40;99.90;;;;;;5096374;28;20380;-70
2023/09/22 00:25:31;;;;;;;;;;;14.40;99.90;;;;;;5094345;28;19968;-71
2023/09/22 00:27:56;;;;;;;;;;;14.40;99.90;;;;;;5120670;27;19980;-71
2023/09/22 00:30:23;;;;;;;;;;;14.40;99.90;;;;;;5105319;28;20357;-70
2023/09/22 00:32:49;;;;;;;;;;;14.50;99.90;;;;;;5129894;27;20272;-71
2023/09/22 00:35:14;;;;;;;;;;;14.40;99.90;;;;;;5094654;28;19934;-70
2023/09/22 00:37:40;;;;;;;;;;;14.40;99.90;;;;;;5105270;27;19924;-73
2023/09/22 00:40:08;;;;;;;;;;;14.40;99.90;;;;;;5102079;27;19941;-72
2023/09/22 00:42:34;;;;;;;;;;;14.40;99.90;;;;;;5122460;27;19927;-74
2023/09/22 00:44:59;;;;;;;;;;;14.40;99.90;;;;;;5099796;28;19984;-73
2023/09/22 00:47:25;;;;;;;;;;;14.40;99.90;;;;;;5102786;28;19927;-72
2023/09/22 00:49:53;;;;;;;;;;;14.40;99.90;;;;;;5079916;27;20293;-72
2023/09/22 00:52:19;;;;;;;;;;;14.40;99.90;;;;;;5089048;28;19919;-72
2023/09/22 00:54:45;;;;;;;;;;;14.40;99.90;;;;;;5118178;27;19919;-71
2023/09/22 00:57:11;;;;;;;;;;;14.40;99.90;;;;;;5091792;28;20269;-73
2023/09/22 00:59:37;;;;;;;;;;;14.40;99.90;;;;;;5097664;27;19927;-73
2023/09/22 01:02:03;;;;;;;;;;;14.40;99.90;;;;;;5084055;27;20014;-72
2023/09/22 01:04:29;;;;;;;;;;;14.40;99.90;;;;;;5123153;27;19920;-72
2023/09/22 01:06:55;;;;;;;;;;;14.40;99.90;;;;;;5100829;28;19927;-72
2023/09/22 01:09:21;;;;;;;;;;;14.40;99.90;;;;;;5112396;28;19920;-71
2023/09/22 01:11:47;;;;;;;;;;;14.40;99.90;;;;;;5093020;28;19919;-71
2023/09/22 01:14:13;;;;;;;;;;;14.40;99.90;;;;;;5095056;28;20026;-71
2023/09/22 01:16:39;;;;;;;;;;;14.40;99.90;;;;;;5093949;28;19920;-71
2023/09/22 01:19:16;;;;;;;;;;;14.40;99.90;;;;;;5094593;28;19966;-72
2023/09/22 01:21:46;;;;;;;;;;;14.30;99.90;;;;;;5094572;28;20281;-71
2023/09/22 01:24:12;;;;;;;;;;;14.30;99.90;;;;;;5094592;28;19920;-72
2023/09/22 01:26:38;;;;;;;;;;;14.30;99.90;;;;;;5113068;28;19973;-70
2023/09/22 01:29:04;;;;;;;;;;;14.30;99.90;;;;;;5111078;28;19930;-71
2023/09/22 01:31:30;;;;;;;;;;;14.30;99.90;;;;;;5094870;28;19919;-71
2023/09/22 01:33:56;;;;;;;;;;;14.30;99.90;;;;;;5113698;28;20364;-71
2023/09/22 01:36:21;;;;;;;;;;;14.30;99.90;;;;;;5094052;28;19924;-71
2023/09/22 01:38:47;;;;;;;;;;;14.30;99.90;;;;;;5071478;28;19985;-71
2023/09/22 01:41:13;;;;;;;;;;;14.30;99.90;;;;;;5091164;28;19919;-70
2023/09/22 01:43:39;;;;;;;;;;;14.30;99.90;;;;;;5095146;28;20027;-70
2023/09/22 01:46:05;;;;;;;;;;;14.20;99.90;;;;;;5094807;28;19924;-75
2023/09/22 01:48:31;;;;;;;;;;;14.20;99.90;;;;;;5095311;28;19919;-71
2023/09/22 01:51:00;;;;;;;;;;;14.20;99.90;;;;;;5094823;28;19919;-70
2023/09/22 01:53:25;;;;;;;;;;;14.20;99.90;;;;;;5112362;28;19923;-71
2023/09/22 01:55:51;;;;;;;;;;;14.20;99.90;;;;;;5094520;28;19920;-70
2023/09/22 01:58:17;;;;;;;;;;;14.20;99.90;;;;;;5094360;28;19999;-71
2023/09/22 02:00:42;;;;;;;;;;;14.20;99.90;;;;;;5107869;28;20011;-70
2023/09/22 02:03:11;;;;;;;;;;;14.20;99.90;;;;;;5094306;28;19927;-73
2023/09/22 02:05:36;;;;;;;;;;;14.20;99.90;;;;;;5094819;28;19919;-71
2023/09/22 02:08:02;;;;;;;;;;;14.20;99.90;;;;;;5094146;28;20395;-71
2023/09/22 02:10:28;;;;;;;;;;;14.20;99.90;;;;;;5095364;28;19919;-71
2023/09/22 02:12:54;;;;;;;;;;;14.30;99.90;;;;;;5112303;28;19923;-71
2023/09/22 02:15:19;;;;;;;;;;;14.30;99.90;;;;;;5093034;28;19920;-71
2023/09/22 02:17:46;;;;;;;;;;;14.30;99.90;;;;;;5097914;28;19919;-71
2023/09/22 02:20:35;;;;;;;;;;;14.30;99.90;;;;;;5079072;28;20010;-72
2023/09/22 02:22:58;;;;;;;;;;;14.30;99.90;;;;;;5094263;28;19919;-71
2023/09/22 02:25:25;;;;;;;;;;;14.30;99.90;;;;;;5094301;28;19930;-71
2023/09/22 02:27:53;;;;;;;;;;;14.30;99.90;;;;;;5082243;28;19943;-71
2023/09/22 02:30:19;;;;;;;;;;;14.30;99.90;;;;;;5096764;28;19927;-71
2023/09/22 02:32:50;;;;;;;;;;;14.30;99.90;;;;;;5060747;28;19920;-70
2023/09/22 02:35:16;;;;;;;;;;;14.30;99.90;;;;;;5113049;28;20016;-70
2023/09/22 02:37:41;;;;;;;;;;;14.30;99.90;;;;;;5078585;28;20389;-70
2023/09/22 02:40:07;;;;;;;;;;;14.40;99.90;;;;;;5078449;28;19920;-69
2023/09/22 02:42:33;;;;;;;;;;;14.40;99.90;;;;;;5094890;28;20489;-70
2023/09/22 02:44:59;;;;;;;;;;;14.30;99.90;;;;;;5094924;28;19961;-70
2023/09/22 02:47:28;;;;;;;;;;;14.40;99.90;;;;;;5094637;28;20429;-70
2023/09/22 02:49:56;;;;;;;;;;;14.40;99.90;;;;;;5113967;28;20571;-70
2023/09/22 02:52:22;;;;;;;;;;;14.40;99.90;;;;;;5098697;28;19927;-69
2023/09/22 02:54:54;;;;;;;;;;;14.40;99.90;;;;;;5098795;28;19920;-70
2023/09/22 02:57:20;;;;;;;;;;;14.40;99.90;;;;;;5098472;28;19920;-70
2023/09/22 02:59:46;;;;;;;;;;;14.50;99.90;;;;;;5098592;28;20010;-70
2023/09/22 03:02:12;;;;;;;;;;;14.50;99.90;;;;;;5117035;28;19981;-69
2023/09/22 03:04:40;;;;;;;;;;;14.50;99.90;;;;;;5081417;28;19989;-70
2023/09/22 03:07:05;;;;;;;;;;;14.50;99.90;;;;;;5081833;28;20281;-70
2023/09/22 03:09:31;;;;;;;;;;;14.50;99.90;;;;;;5098179;28;19924;-70
2023/09/22 03:11:57;;;;;;;;;;;14.50;99.90;;;;;;5097880;28;19919;-69
2023/09/22 03:14:22;;;;;;;;;;;14.50;99.90;;;;;;5098157;28;19920;-68
2023/09/22 03:16:48;;;;;;;;;;;14.50;99.90;;;;;;5098552;28;19927;-69
2023/09/22 03:19:14;;;;;;;;;;;14.50;99.90;;;;;;5116240;28;19923;-69
2023/09/22 03:21:39;;;;;;;;;;;14.50;99.90;;;;;;5116107;28;20010;-70
2023/09/22 03:24:05;;;;;;;;;;;14.50;99.90;;;;;;5098097;28;20265;-69
2023/09/22 03:26:31;;;;;;;;;;;14.40;99.90;;;;;;5098108;28;19976;-70
2023/09/22 03:28:57;;;;;;;;;;;14.50;99.90;;;;;;5097997;28;20393;-69
2023/09/22 03:31:23;;;;;;;;;;;14.50;99.90;;;;;;5097855;28;20288;-70
2023/09/22 03:33:48;;;;;;;;;;;14.50;99.90;;;;;;5081408;28;20018;-69
2023/09/22 03:36:14;;;;;;;;;;;14.50;99.90;;;;;;5097863;28;20076;-70
2023/09/22 03:38:41;;;;;;;;;;;14.40;99.90;;;;;;5097872;28;20060;-70
2023/09/22 03:41:06;;;;;;;;;;;14.40;99.90;;;;;;5081245;28;20473;-70
2023/09/22 03:43:32;;;;;;;;;;;14.30;99.90;;;;;;5097344;28;19919;-70
2023/09/22 03:45:58;;;;;;;;;;;14.30;99.90;;;;;;5081055;28;19924;-70
2023/09/22 03:48:24;;;;;;;;;;;14.30;99.90;;;;;;5080403;28;19924;-74
2023/09/22 03:50:49;;;;;;;;;;;14.20;99.90;;;;;;5081113;28;19920;-69
2023/09/22 03:53:15;;;;;;;;;;;14.20;99.90;;;;;;5097544;28;20361;-70
2023/09/22 03:55:41;;;;;;;;;;;14.10;99.90;;;;;;5115407;28;19971;-70
2023/09/22 03:58:07;;;;;;;;;;;14.10;99.90;;;;;;5097820;28;20281;-70
2023/09/22 04:00:33;;;;;;;;;;;14.10;99.90;;;;;;5096531;28;20418;-69
2023/09/22 04:03:01;;;;;;;;;;;14.00;99.90;;;;;;5097605;28;19927;-69
2023/09/22 04:05:27;;;;;;;;;;;14.00;99.90;;;;;;5115205;28;19927;-70
2023/09/22 04:07:54;;;;;;;;;;;14.00;99.90;;;;;;5097300;28;19920;-70
2023/09/22 04:10:20;;;;;;;;;;;14.10;99.90;;;;;;5080642;28;19920;-70
2023/09/22 04:12:46;;;;;;;;;;;14.00;99.90;;;;;;5079612;28;19995;-69
2023/09/22 04:15:11;;;;;;;;;;;14.10;99.90;;;;;;5115475;28;20413;-69
2023/09/22 04:17:38;;;;;;;;;;;14.10;99.90;;;;;;5096993;28;20372;-70
2023/09/22 04:20:11;;;;;;;;;;;14.10;99.90;;;;;;5115174;28;19931;-70
2023/09/22 04:22:37;;;;;;;;;;;14.10;99.90;;;;;;5096785;28;19920;-70
2023/09/22 04:25:18;;;;;;;;;;;14.10;99.90;;;;;;5097202;28;19926;-69
2023/09/22 04:27:46;;;;;;;;;;;14.10;99.90;;;;;;5096425;28;19930;-69
2023/09/22 04:30:15;;;;;;;;;;;14.10;99.90;;;;;;5097092;28;19920;-70
2023/09/22 04:32:44;;;;;;;;;;;14.10;99.90;;;;;;5079835;28;20309;-70
2023/09/22 04:35:10;;;;;;;;;;;14.10;99.90;;;;;;5097172;28;19973;-70
2023/09/22 04:37:36;;;;;;;;;;;14.00;99.90;;;;;;5096535;28;19923;-70
2023/09/22 04:40:11;;;;;;;;;;;14.00;99.90;;;;;;5096054;28;19934;-71
2023/09/22 04:42:37;;;;;;;;;;;14.00;99.90;;;;;;5080032;28;19924;-70
2023/09/22 04:45:03;;;;;;;;;;;14.00;99.90;;;;;;5114403;28;19973;-68
2023/09/22 04:47:28;;;;;;;;;;;14.00;99.90;;;;;;5096399;28;19923;-71
2023/09/22 04:49:54;;;;;;;;;;;14.00;99.90;;;;;;5112837;28;20257;-70
2023/09/22 04:52:20;;;;;;;;;;;14.00;99.90;;;;;;5095494;28;19969;-70
2023/09/22 04:54:46;;;;;;;;;;;14.00;99.90;;;;;;5113694;28;20289;-72
2023/09/22 04:57:11;;;;;;;;;;;14.00;99.90;;;;;;5095611;28;19926;-70
2023/09/22 04:59:37;;;;;;;;;;;14.00;99.90;;;;;;5113203;28;19919;-71
2023/09/22 05:02:04;;;;;;;;;;;14.00;99.90;;;;;;5078846;28;19967;-71
2023/09/22 05:04:29;;;;;;;;;;;14.00;99.90;;;;;;5113509;28;19919;-70
2023/09/22 05:06:56;;;;;;;;;;;14.00;99.90;;;;;;5095619;28;19922;-69
2023/09/22 05:09:22;;;;;;;;;;;14.00;99.90;;;;;;5095748;28;19920;-69
2023/09/22 05:11:47;;;;;;;;;;;14.00;99.90;;;;;;5095074;28;20361;-69
2023/09/22 05:14:14;;;;;;;;;;;14.00;99.90;;;;;;5113658;28;19976;-70
2023/09/22 05:16:41;;;;;;;;;;;14.00;99.90;;;;;;5078866;28;19923;-70
2023/09/22 05:19:07;;;;;;;;;;;14.00;99.90;;;;;;5095803;28;19927;-71
2023/09/22 05:21:33;;;;;;;;;;;14.00;99.90;;;;;;5095838;28;19920;-69
2023/09/22 05:23:59;;;;;;;;;;;14.00;99.90;;;;;;5095426;28;19938;-69
2023/09/22 05:26:25;;;;;;;;;;;14.00;99.90;;;;;;5095481;28;19920;-69
2023/09/22 05:28:51;;;;;;;;;;;14.00;99.90;;;;;;5094920;28;19920;-70
2023/09/22 05:31:16;;;;;;;;;;;14.00;99.90;;;;;;5095727;28;20277;-69
2023/09/22 05:33:42;;;;;;;;;;;14.00;99.90;;;;;;5095072;28;20301;-69
2023/09/22 05:36:08;;;;;;;;;;;13.90;99.90;;;;;;5113637;28;19931;-69
2023/09/22 05:38:34;;;;;;;;;;;13.90;99.90;;;;;;5095303;28;19923;-69
2023/09/22 05:41:00;;;;;;;;;;;13.90;99.90;;;;;;5077931;28;19916;-70
2023/09/22 05:43:25;;;;;;;;;;;13.80;99.90;;;;;;5094930;28;19927;-69
2023/09/22 05:45:55;;;;;;;;;;;13.90;99.90;;;;;;5077658;28;19923;-71
2023/09/22 05:48:21;;;;;;;;;;;13.90;99.90;;;;;;5095257;28;19926;-70
2023/09/22 05:50:59;;;;;;;;;;;13.90;99.90;;;;;;5113063;28;19919;-71
2023/09/22 05:53:25;;;;;;;;;;;14.00;99.90;;;;;;5077693;28;19920;-70
2023/09/22 05:56:06;;;;;;;;;;;13.90;99.90;;;;;;5061189;28;20014;-70
2023/09/22 05:58:32;;;;;;;;;;;13.90;99.90;;;;;;5113423;28;19927;-70
2023/09/22 06:00:58;;;;;;;;;;;14.00;99.90;;;;;;5112863;28;19920;-69
2023/09/22 06:03:24;;;;;;;;;;;14.00;99.90;;;;;;5095244;28;20365;-71
2023/09/22 06:05:50;;;;;;;;;;;14.00;99.90;;;;;;5061209;28;19920;-72
2023/09/22 06:08:15;;;;;;;;;;;14.00;99.90;;;;;;5094719;28;20280;-72
2023/09/22 06:10:43;;;;;;;;;;;14.00;99.90;;;;;;5078123;28;20380;-70
2023/09/22 06:13:09;;;;;;;;;;;14.00;99.90;;;;;;5094273;28;19968;-69
2023/09/22 06:15:35;;;;;;;;;;;14.00;99.90;;;;;;5094781;28;20006;-70
2023/09/22 06:18:00;;;;;;;;;;;14.00;99.90;;;;;;5112257;28;20023;-70
2023/09/22 06:20:26;;;;;;;;;;;14.00;99.90;;;;;;5094688;28;19924;-71
2023/09/22 06:22:52;;;;;;;;;;;14.00;99.90;;;;;;5112568;28;19919;-70
2023/09/22 06:25:21;;;;;;;;;;;13.90;99.90;;;;;;5082234;28;20015;-70
2023/09/22 06:27:47;;;;;;;;;;;13.90;99.90;;;;;;5116475;28;19924;-72
2023/09/22 06:30:12;;;;;;;;;;;13.90;99.90;;;;;;5081719;28;19965;-70
2023/09/22 06:32:41;;;;;;;;;;;13.90;99.90;;;;;;5098746;28;19920;-71
2023/09/22 06:35:10;;;;;;;;;;;13.90;99.90;;;;;;5081766;28;20024;-69
2023/09/22 06:37:36;;;;;;;;;;;14.00;99.90;;;;;;5117039;28;19919;-70
2023/09/22 06:40:10;;;;;;;;;;;14.00;99.90;;;;;;5098308;28;19927;-70
2023/09/22 06:42:38;;;;;;;;;;;14.00;99.90;;;;;;5098796;28;19920;-70
2023/09/22 06:45:04;;;;;;;;;;;14.10;99.90;;;;;;5098278;28;20002;-69
2023/09/22 06:47:29;;;;;;;;;;;14.10;99.90;;;;;;5098491;28;21890;-69
2023/09/22 06:49:56;;;;;;;;;;;14.10;99.90;;;;;;5098163;28;19924;-68
2023/09/22 06:52:22;;;;;;;;;;;14.10;99.90;;;;;;5098546;28;19967;-69
2023/09/22 06:54:49;;;;;;;;;;;14.10;99.90;;;;;;5116852;28;19959;-70
2023/09/22 06:57:14;;;;;;;;;;;14.20;99.90;;;;;;5097938;28;19927;-67
2023/09/22 06:59:40;;;;;;;;;;;14.20;99.90;;;;;;5098821;28;19920;-70
2023/09/22 07:02:06;;;;;;;;;;;14.30;99.90;;;;;;5116091;28;20018;-71
2023/09/22 07:04:32;;;;;;;;;;;14.40;99.90;;;;;;5080949;28;20010;-70
2023/09/22 07:06:59;;;;;;;;;;;14.40;99.90;;;;;;5096908;28;19927;-69
2023/09/22 07:09:25;;;;;;;;;;;14.50;99.90;;;;;;5097707;28;19919;-69
2023/09/22 07:11:50;;;;;;;;;;;14.50;99.90;;;;;;5064387;28;19920;-71
2023/09/22 07:14:16;;;;;;;;;;;14.40;99.90;;;;;;5115803;28;19920;-69
2023/09/22 07:16:42;;;;;;;;;;;14.60;99.90;;;;;;5098307;28;19920;-69
2023/09/22 07:19:07;;;;;;;;;;;14.60;99.90;;;;;;5081010;28;20027;-69
2023/09/22 07:21:34;;;;;;;;;;;14.60;99.90;;;;;;5098336;28;19924;-69
2023/09/22 07:24:00;;;;;;;;;;;14.60;99.90;;;;;;5081163;28;19981;-71
2023/09/22 07:26:26;;;;;;;;;;;14.60;99.90;;;;;;5098320;28;19959;-69
2023/09/22 07:28:52;;;;;;;;;;;14.60;99.90;;;;;;5097878;28;20369;-69
2023/09/22 07:31:28;;;;;;;;;;;14.50;99.90;;;;;;5080906;28;19926;-69
2023/09/22 07:33:53;;;;;;;;;;;14.50;99.90;;;;;;5097962;28;19928;-70
2023/09/22 07:36:19;;;;;;;;;;;14.40;99.90;;;;;;5096730;28;19969;-69
2023/09/22 07:38:45;;;;;;;;;;;14.40;99.90;;;;;;5098051;28;19967;-69
2023/09/22 07:41:11;;;;;;;;;;;14.30;99.90;;;;;;5115401;28;19922;-69
2023/09/22 07:43:36;;;;;;;;;;;14.30;99.90;;;;;;5097928;28;19926;-70
2023/09/22 07:46:06;;;;;;;;;;;14.30;99.90;;;;;;5080751;28;19926;-70
2023/09/22 07:48:32;;;;;;;;;;;14.30;99.90;;;;;;5115818;28;19982;-70
2023/09/22 07:51:00;;;;;;;;;;;14.40;99.90;;;;;;5097670;28;19971;-71
2023/09/22 07:53:25;;;;;;;;;;;14.30;99.90;;;;;;5098063;28;19920;-71
2023/09/22 07:55:55;;;;;;;;;;;14.30;99.90;;;;;;5098308;28;19985;-71
2023/09/22 07:58:24;;;;;;;;;;;14.30;99.90;;;;;;5115140;28;19927;-70
2023/09/22 08:00:50;;;;;;;;;;;14.30;99.90;;;;;;5097498;28;20015;-71
2023/09/22 08:03:18;;;;;;;;;;;14.30;99.90;;;;;;5115600;28;19924;-71
2023/09/22 08:05:44;;;;;;;;;;;14.30;99.90;;;;;;5115761;28;19930;-70
2023/09/22 08:08:10;;;;;;;;;;;14.30;99.90;;;;;;5080300;28;19926;-70
2023/09/22 08:10:38;;;;;;;;;;;14.30;99.90;;;;;;5080858;28;20293;-71
2023/09/22 08:13:07;;;;;;;;;;;14.30;99.90;;;;;;5080238;28;19923;-73
2023/09/22 08:15:34;;;;;;;;;;;14.30;99.90;;;;;;5097348;28;19927;-70
2023/09/22 08:18:02;;;;;;;;;;;14.30;99.90;;;;;;5097415;28;19919;-70
2023/09/22 08:20:27;;;;;;;;;;;14.40;99.90;;;;;;5097200;28;19967;-71
2023/09/22 08:22:53;;;;;;;;;;;14.40;99.90;;;;;;5080065;28;19919;-71
2023/09/22 08:25:20;;;;;;;;;;;14.40;99.90;;;;;;5096639;28;19976;-72
2023/09/22 08:27:47;;;;;;;;;;;14.40;99.90;;;;;;5097086;28;19977;-69
2023/09/22 08:30:13;;;;;;;;;;;14.40;99.90;;;;;;5096541;28;19927;-70
2023/09/22 08:32:40;;;;;;;;;;;14.40;99.90;;;;;;5114634;28;19924;-71
2023/09/22 08:35:06;;;;;;;;;;;14.40;99.90;;;;;;5096627;28;19919;-68
2023/09/22 08:37:33;;;;;;;;;;;14.50;99.90;;;;;;5114777;28;19927;-67
2023/09/22 08:40:00;;;;;;;;;;;14.50;99.90;;;;;;5096747;28;20028;-68
2023/09/22 08:42:26;;;;;;;;;;;14.60;99.90;;;;;;5096150;28;19939;-63
2023/09/22 08:44:52;;;;;;;;;;;14.60;99.90;;;;;;5114652;28;19919;-62
2023/09/22 08:47:21;;;;;;;;;;;14.70;99.90;;;;;;5112992;28;19926;-63
2023/09/22 08:49:47;;;;;;;;;;;14.70;99.90;;;;;;5114387;28;19966;-62
2023/09/22 08:52:12;;;;;;;;;;;14.70;99.90;;;;;;5095927;28;20031;-67
2023/09/22 08:54:38;;;;;;;;;;;14.70;99.90;;;;;;5114339;28;19923;-63
2023/09/22 08:57:04;;;;;;;;;;;14.80;99.90;;;;;;5096277;28;19930;-62
2023/09/22 08:59:29;;;;;;;;;;;14.80;99.90;;;;;;5095539;28;19928;-64
2023/09/22 09:01:55;;;;;;;;;;;14.80;99.90;;;;;;5114250;28;20317;-62
2023/09/22 09:04:33;;;;;;;;;;;14.80;99.90;;;;;;5113838;28;19932;-63
2023/09/22 09:06:59;;;;;;;;;;;14.80;99.90;;;;;;5096205;28;20478;-62
2023/09/22 09:09:25;;;;;;;;;;;14.80;99.90;;;;;;5113806;28;20019;-62
2023/09/22 09:11:57;;;;;;;;;;;14.80;99.90;;;;;;5114127;28;19919;-63
2023/09/22 09:14:27;;;;;;;;;;;15.00;99.90;;;;;;5113762;28;20064;-69
2023/09/22 09:16:56;;;;;;;;;;;15.00;99.90;;;;;;5095814;28;20026;-69
2023/09/22 09:19:22;;;;;;;;;;;15.20;99.90;;;;;;5095408;28;20014;-69
2023/09/22 09:22:09;;;;;;;;;;;15.40;99.90;;;;;;5096086;28;19971;-69
2023/09/22 09:24:35;;;;;;;;;;;15.50;99.90;;;;;;5094961;28;19919;-70
2023/09/22 09:27:13;;;;;;;;;;;15.60;99.90;;;;;;5113448;28;19972;-71
2023/09/22 09:29:38;;;;;;;;;;;15.50;99.90;;;;;;5113123;28;19926;-70
2023/09/22 09:32:04;;;;;;;;;;;15.60;99.90;;;;;;5078614;28;19923;-71
2023/09/22 09:34:40;;;;;;;;;;;15.60;99.90;;;;;;5078416;28;20254;-71
2023/09/22 09:37:13;;;;;;;;;;;15.60;99.90;;;;;;5095269;28;19931;-71
2023/09/22 09:39:56;;;;;;;;;;;15.60;99.90;;;;;;5078541;28;20480;-72
2023/09/22 09:42:23;;;;;;;;;;;15.80;99.90;;;;;;5078502;28;19920;-73
2023/09/22 09:44:49;;;;;;;;;;;15.70;99.90;;;;;;5095618;28;19919;-73
2023/09/22 09:47:22;;;;;;;;;;;15.80;99.90;;;;;;5095399;28;19920;-72
2023/09/22 09:49:52;;;;;;;;;;;15.90;99.90;;;;;;5095540;28;19927;-75
2023/09/22 09:52:22;;;;;;;;;;;16.00;99.90;;;;;;5095569;28;20020;-70
2023/09/22 09:54:50;;;;;;;;;;;16.10;99.90;;;;;;5095614;28;19944;-73
2023/09/22 09:57:16;;;;;;;;;;;16.20;99.90;;;;;;5095381;28;19920;-68
2023/09/22 09:59:42;;;;;;;;;;;16.20;99.90;;;;;;5112426;28;19927;-72
2023/09/22 10:02:09;;;;;;;;;;;16.20;99.90;;;;;;5078294;28;19920;-73
2023/09/22 10:04:34;;;;;;;;;;;16.10;99.90;;;;;;5090624;28;19923;-70
2023/09/22 10:07:00;;;;;;;;;;;16.10;99.90;;;;;;5092821;28;20030;-74
2023/09/22 10:09:29;;;;;;;;;;;16.00;99.90;;;;;;5091160;28;20458;-70
2023/09/22 10:11:55;;;;;;;;;;;16.00;99.90;;;;;;5078240;28;19924;-70
2023/09/22 10:14:39;;;;;;;;;;;16.00;99.90;;;;;;5078494;28;19977;-70
2023/09/22 10:17:17;;;;;;;;;;;16.00;99.90;;;;;;5092739;28;19923;-69
2023/09/22 10:19:44;;;;;;;;;;;16.20;99.90;;;;;;5077076;28;19920;-70
2023/09/22 10:22:11;;;;;;;;;;;16.30;99.90;;;;;;5111306;28;19923;-70
2023/09/22 10:24:38;;;;;;;;;;;16.50;99.90;;;;;;5093799;28;19931;-71
2023/09/22 10:27:07;;;;;;;;;;;16.60;99.90;;;;;;5078226;28;20285;-70
2023/09/22 10:29:33;;;;;;;;;;;16.70;99.90;;;;;;5094617;28;20392;-70
2023/09/22 10:34:47;;;;;;;;;;;16.80;99.90;;;;;;5094391;28;20372;-70
2023/09/22 10:37:13;;;;;;;;;;;17.00;99.90;;;;;;5094375;28;20364;-71
2023/09/22 10:39:48;;;;;;;;;;;17.10;99.90;;;;;;5094651;28;19967;-70
2023/09/22 10:42:14;;;;;;;;;;;17.20;99.90;;;;;;5078244;28;19966;-70
2023/09/22 10:45:01;;;;;;;;;;;17.30;99.90;;;;;;5093946;28;20002;-70
2023/09/22 10:47:37;;;;;;;;;;;17.30;99.90;;;;;;5076908;28;19924;-74
2023/09/22 10:50:10;;;;;;;;;;;17.40;99.90;;;;;;5093981;28;19927;-68
2023/09/22 10:52:36;;;;;;;;;;;17.50;99.90;;;;;;5094486;28;19930;-69
2023/09/22 10:55:04;;;;;;;;;;;17.50;99.90;;;;;;5078216;28;19984;-69
2023/09/22 10:57:30;;;;;;;;;;;17.50;99.90;;;;;;5094380;28;20265;-74
2023/09/22 10:59:56;;;;;;;;;;;17.40;99.90;;;;;;5112941;28;19989;-69
2023/09/22 11:02:25;;;;;;;;;;;17.30;99.90;;;;;;5094651;28;19969;-69
2023/09/22 11:04:50;;;;;;;;;;;17.30;99.90;;;;;;5094339;28;19930;-69
2023/09/22 11:07:29;;;;;;;;;;;17.30;99.90;;;;;;5113001;28;19924;-69
2023/09/22 11:09:54;;;;;;;;;;;17.30;99.90;;;;;;5060537;28;19931;-69
2023/09/22 11:12:20;;;;;;;;;;;17.30;99.90;;;;;;5097688;28;19924;-70
2023/09/22 11:14:46;;;;;;;;;;;17.20;99.90;;;;;;5097920;28;19979;-71
2023/09/22 11:17:12;;;;;;;;;;;17.20;99.90;;;;;;5081700;28;19971;-72
2023/09/22 11:19:49;;;;;;;;;;;17.20;99.90;;;;;;5115848;28;19978;-70
2023/09/22 11:22:14;;;;;;;;;;;17.10;99.90;;;;;;5098688;28;19969;-71
2023/09/22 11:24:40;;;;;;;;;;;17.30;99.90;;;;;;5097531;28;19924;-71
2023/09/22 11:27:06;;;;;;;;;;;17.30;99.90;;;;;;5081329;28;19989;-68
2023/09/22 11:29:33;;;;;;;;;;;17.40;99.90;;;;;;5098175;28;19924;-69
2023/09/22 11:32:00;;;;;;;;;;;17.40;99.90;;;;;;5097896;28;20050;-71
2023/09/22 11:34:27;;;;;;;;;;;17.50;99.90;;;;;;5098429;28;20330;-69
2023/09/22 11:36:53;;;;;;;;;;;17.60;99.90;;;;;;5080937;28;20352;-69
2023/09/22 11:39:34;;;;;;;;;;;17.60;99.90;;;;;;5098076;28;19989;-68
2023/09/22 11:42:01;;;;;;;;;;;17.60;99.90;;;;;;5097490;28;19977;-69
2023/09/22 11:44:27;;;;;;;;;;;17.60;99.90;;;;;;5097696;28;19923;-70
2023/09/22 11:46:52;;;;;;;;;;;17.50;99.90;;;;;;5115399;28;19931;-69
2023/09/22 11:49:18;;;;;;;;;;;17.60;99.90;;;;;;5097662;28;19924;-69
2023/09/22 11:51:45;;;;;;;;;;;17.70;99.90;;;;;;5063967;28;19928;-69
2023/09/22 11:54:11;;;;;;;;;;;17.70;99.90;;;;;;5080482;28;19924;-68
2023/09/22 11:56:37;;;;;;;;;;;17.70;99.90;;;;;;5097835;28;19974;-73
2023/09/22 11:59:06;;;;;;;;;;;17.70;99.90;;;;;;5115495;28;19967;-69
2023/09/22 12:01:32;;;;;;;;;;;17.80;99.90;;;;;;5097721;28;19924;-69
2023/09/22 12:03:58;;;;;;;;;;;17.80;99.90;;;;;;5115372;28;20203;-69
2023/09/22 12:06:24;;;;;;;;;;;17.80;99.90;;;;;;5097223;28;19983;-69
2023/09/22 12:08:49;;;;;;;;;;;17.90;99.90;;;;;;5114866;28;19982;-69
2023/09/22 12:11:15;;;;;;;;;;;17.90;99.90;;;;;;5115514;28;19931;-68
2023/09/22 12:13:40;;;;;;;;;;;17.90;99.90;;;;;;5115452;28;19929;-73
2023/09/22 12:16:06;;;;;;;;;;;17.80;99.90;;;;;;5080368;28;20026;-69
2023/09/22 12:18:32;;;;;;;;;;;17.80;99.90;;;;;;5080221;28;19931;-69
2023/09/22 12:20:57;;;;;;;;;;;17.70;99.90;;;;;;5079997;28;19973;-68
2023/09/22 12:23:23;;;;;;;;;;;17.70;99.90;;;;;;5096801;28;20377;-69
2023/09/22 12:25:52;;;;;;;;;;;17.60;99.90;;;;;;5096818;28;19927;-68
2023/09/22 12:28:18;;;;;;;;;;;17.60;99.90;;;;;;5096835;28;20342;-71
2023/09/22 12:30:43;;;;;;;;;;;17.50;99.90;;;;;;5096626;28;19931;-75
2023/09/22 12:33:09;;;;;;;;;;;17.40;99.90;;;;;;5096652;28;19953;-70
2023/09/22 12:35:35;;;;;;;;;;;17.50;99.90;;;;;;5115009;28;19924;-70
2023/09/22 12:38:00;;;;;;;;;;;17.50;99.90;;;;;;5079663;28;19924;-71
2023/09/22 12:40:26;;;;;;;;;;;17.50;99.90;;;;;;5114995;28;19924;-71
2023/09/22 12:42:52;;;;;;;;;;;17.60;99.90;;;;;;5079225;28;19924;-71
2023/09/22 12:45:19;;;;;;;;;;;17.50;99.90;;;;;;5114451;28;20441;-71
2023/09/22 12:47:45;;;;;;;;;;;17.50;99.90;;;;;;5096475;28;19923;-74
2023/09/22 12:50:10;;;;;;;;;;;17.50;99.90;;;;;;5114449;28;20381;-72
2023/09/22 12:52:37;;;;;;;;;;;17.50;99.90;;;;;;5096350;28;20393;-72
2023/09/22 12:55:04;;;;;;;;;;;17.50;99.90;;;;;;5114310;28;20016;-71
2023/09/22 12:57:30;;;;;;;;;;;17.40;99.90;;;;;;5096079;28;19923;-71
2023/09/22 12:59:56;;;;;;;;;;;17.40;99.90;;;;;;5095777;28;20015;-70
2023/09/22 13:02:22;;;;;;;;;;;17.40;99.90;;;;;;5114406;28;19924;-72
2023/09/22 13:04:48;;;;;;;;;;;17.50;99.90;;;;;;5114429;28;20011;-74
2023/09/22 13:07:18;;;;;;;;;;;17.50;99.90;;;;;;5095784;28;19928;-72
2023/09/22 13:09:44;;;;;;;;;;;17.50;99.90;;;;;;5095612;28;19927;-72
2023/09/22 13:12:09;;;;;;;;;;;17.40;99.90;;;;;;5113377;28;19992;-71
2023/09/22 13:14:36;;;;;;;;;;;17.40;99.90;;;;;;5096352;28;19924;-71
2023/09/22 13:17:01;;;;;;;;;;;17.30;99.90;;;;;;5113840;28;19924;-72
2023/09/22 13:19:30;;;;;;;;;;;17.30;99.90;;;;;;5096107;28;19924;-72
2023/09/22 13:21:57;;;;;;;;;;;17.30;99.90;;;;;;5096103;28;19930;-72
2023/09/22 13:24:22;;;;;;;;;;;17.30;99.90;;;;;;5114140;28;19924;-71
2023/09/22 13:26:49;;;;;;;;;;;17.30;99.90;;;;;;5113977;28;19945;-72
2023/09/22 13:29:15;;;;;;;;;;;17.20;99.90;;;;;;5078369;28;19924;-71
2023/09/22 13:31:40;;;;;;;;;;;17.20;99.90;;;;;;5113956;28;19923;-70
2023/09/22 13:34:06;;;;;;;;;;;17.30;99.90;;;;;;5077847;28;20355;-71
2023/09/22 13:36:32;;;;;;;;;;;17.30;99.90;;;;;;5095874;28;19977;-71
2023/09/22 13:38:58;;;;;;;;;;;17.30;99.90;;;;;;5113247;28;20022;-71
2023/09/22 13:41:24;;;;;;;;;;;17.30;99.90;;;;;;5079070;28;19967;-71
2023/09/22 13:43:50;;;;;;;;;;;17.30;99.90;;;;;;5095690;28;19929;-75
2023/09/22 13:46:16;;;;;;;;;;;17.30;99.90;;;;;;5095035;28;19919;-75
2023/09/22 13:48:42;;;;;;;;;;;17.40;99.90;;;;;;5095450;28;19930;-72
2023/09/22 13:51:08;;;;;;;;;;;17.40;99.90;;;;;;5113242;28;19924;-71
2023/09/22 13:53:37;;;;;;;;;;;17.40;99.90;;;;;;5095556;28;19928;-70
2023/09/22 13:56:04;;;;;;;;;;;17.40;99.90;;;;;;5113096;28;19977;-72
2023/09/22 13:58:30;;;;;;;;;;;17.50;99.90;;;;;;5095444;28;19931;-76
2023/09/22 14:00:55;;;;;;;;;;;17.50;99.90;;;;;;5095620;28;19923;-75
2023/09/22 14:03:22;;;;;;;;;;;17.50;99.90;;;;;;5095292;28;20049;-74
2023/09/22 14:05:48;;;;;;;;;;;17.50;99.90;;;;;;5095046;28;20397;-72
2023/09/22 14:08:14;;;;;;;;;;;17.50;99.90;;;;;;5112802;28;19928;-72
2023/09/22 14:10:40;;;;;;;;;;;17.50;99.90;;;;;;5094589;28;19924;-75
2023/09/22 14:13:07;;;;;;;;;;;17.40;99.90;;;;;;5112254;28;19923;-77
2023/09/22 14:15:32;;;;;;;;;;;17.40;99.90;;;;;;5113005;28;20511;-77
2023/09/22 14:17:58;;;;;;;;;;;17.30;99.90;;;;;;5095328;28;19979;-76